Yangquan, China
Current Conditions -  °F | °C
As of 3:30 PM on Sunday 26 Oct 2014 (Local Time) from ZBYN Reporting Station
Clear Clear  
Wind Chill: 68°   Ceiling: Unl
Heat Index: 68°   Visibility: 6mi
Dew Point: 28°   Wind: 13mph
Humidity: 23%   Direction: 80°E
Pressure: 30.18"   Gusts: NA
Location:  37.87°N, 113.57°E
Report Text: ZBYN 260730Z 08006MPS CAVOK 20/M02 Q1022 NOSIG
Loading
Personal Weather Stations






























Interactive Weather Map
Tropical Storm Tracking
New forecast layout! Learn more

10-Day Weather Forecast

Advertisements
Track Severe Weather on mobile